Time;durP1;ratioP1;P1;durP2;ratioP2;P2;SDS_P1;SDS_P2;PMS_P1;PMS_P2;Temp;Humidity;BMP_temperature;BMP_pressure;BME280_temperature;BME280_humidity;BME280_pressure;Samples;Min_cycle;Max_cycle;Signal;HPM_P1;HPM_P2
2022/07/02 00:02:23;;;;;;;5.12;3.67;;;;;;;16.78;100.00;99964.08;1676881;85;21061;-64
2022/07/02 00:05:00;;;;;;;7.75;3.58;;;;;;;16.78;100.00;99961.88;1682941;85;21070;-64
2022/07/02 00:07:27;;;;;;;6.42;3.62;;;;;;;16.76;100.00;99959.98;1706980;82;20973;-64
2022/07/02 00:09:56;;;;;;;7.92;4.00;;;;;;;16.74;100.00;99958.12;1675355;84;21115;-64
2022/07/02 00:12:24;;;;;;;6.55;4.25;;;;;;;16.74;100.00;99962.23;1685618;84;21038;-64
2022/07/02 00:14:54;;;;;;;7.55;3.90;;;;;;;16.69;100.00;99965.89;1678321;84;21035;-64
2022/07/02 00:17:21;;;;;;;5.42;4.12;;;;;;;16.59;100.00;99961.98;1690718;82;20978;-63
2022/07/02 00:19:48;;;;;;;5.78;3.62;;;;;;;16.54;100.00;99968.95;1686077;84;21062;-63
2022/07/02 00:22:15;;;;;;;6.60;4.10;;;;;;;16.53;100.00;99963.19;1676408;84;21043;-64
2022/07/02 00:24:43;;;;;;;8.38;3.70;;;;;;;16.55;100.00;99969.73;1696187;84;22025;-64
2022/07/02 00:27:15;;;;;;;6.05;3.47;;;;;;;16.56;100.00;99965.91;1675354;84;21660;-63
2022/07/02 00:29:56;;;;;;;7.30;3.72;;;;;;;16.57;100.00;99962.87;1725653;81;21034;-63
2022/07/02 00:32:27;;;;;;;9.65;4.47;;;;;;;16.53;100.00;99963.19;1707015;82;21043;-63
2022/07/02 00:34:57;;;;;;;6.80;3.95;;;;;;;16.44;100.00;99961.70;1710382;81;21115;-62
2022/07/02 00:37:26;;;;;;;5.17;3.92;;;;;;;16.39;100.00;99965.94;1729605;82;20996;-63
2022/07/02 00:39:53;;;;;;;6.50;4.05;;;;;;;16.39;100.00;99970.61;1731644;81;21659;-63
2022/07/02 00:42:20;;;;;;;8.53;3.80;;;;;;;16.39;100.00;99981.05;1753860;81;21008;-63
2022/07/02 00:44:47;;;;;;;7.55;4.45;;;;;;;16.39;100.00;99986.55;1667327;84;21092;-62
2022/07/02 00:47:13;;;;;;;7.97;4.20;;;;;;;16.38;100.00;99990.40;1680146;84;21103;-63
2022/07/02 00:49:40;;;;;;;4.70;4.05;;;;;;;16.36;100.00;99990.45;1700512;83;21087;-63
2022/07/02 00:52:07;;;;;;;6.17;4.42;;;;;;;16.39;100.00;99991.22;1704191;83;21041;-63
2022/07/02 00:54:38;;;;;;;5.40;4.17;;;;;;;16.39;100.00;99987.92;1743662;81;21008;-62
2022/07/02 00:57:05;;;;;;;5.85;4.33;;;;;;;16.36;100.00;99988.53;1719509;82;21027;-63
2022/07/02 00:59:32;;;;;;;7.17;4.40;;;;;;;16.32;100.00;99997.12;1726606;82;21087;-63
2022/07/02 01:01:59;;;;;;;5.75;4.58;;;;;;;16.32;100.00;99997.67;1755285;81;21004;-62
2022/07/02 01:04:29;;;;;;;6.50;5.55;;;;;;;16.31;100.00;100005.65;1737477;81;21028;-63
2022/07/02 01:07:04;;;;;;;7.42;5.00;;;;;;;16.32;100.00;100009.48;1721851;82;20987;-63
2022/07/02 01:12:27;;;;;;;7.65;6.35;;;;;;;16.28;100.00;100000.20;1733354;81;20987;-62
2022/07/02 01:14:55;;;;;;;10.40;6.75;;;;;;;16.28;100.00;99994.72;1712781;82;21012;-62
2022/07/02 01:17:22;;;;;;;9.33;6.80;;;;;;;16.26;100.00;99991.44;1738398;81;20991;-62
2022/07/02 01:19:50;;;;;;;9.95;6.87;;;;;;;16.25;100.00;99998.07;1727701;81;21950;-62
2022/07/02 01:22:20;;;;;;;9.95;6.70;;;;;;;16.19;100.00;100004.75;1714714;82;21024;-62
2022/07/02 01:24:49;;;;;;;11.30;6.95;;;;;;;16.17;100.00;100004.25;1715997;81;21441;-62
2022/07/02 01:27:17;;;;;;;7.75;6.30;;;;;;;16.20;100.00;100002.27;1714139;82;21566;-62
2022/07/02 01:29:43;;;;;;;7.85;6.40;;;;;;;16.19;100.00;100006.13;1715745;82;21099;-63
2022/07/02 01:32:10;;;;;;;6.83;6.12;;;;;;;16.18;100.00;100010.01;1735115;82;20996;-62
2022/07/02 01:34:46;;;;;;;9.55;6.05;;;;;;;16.18;100.00;100011.94;1733475;81;21083;-63
2022/07/02 01:37:15;;;;;;;8.80;5.33;;;;;;;16.16;100.00;100001.24;1720211;82;21070;-62
2022/07/02 01:39:43;;;;;;;8.88;5.80;;;;;;;16.14;100.00;100006.23;1729319;82;21051;-62
2022/07/02 01:42:09;;;;;;;7.30;4.75;;;;;;;16.12;100.00;100004.91;1676639;84;21142;-63
2022/07/02 01:44:36;;;;;;;7.83;4.60;;;;;;;16.10;100.00;100004.38;1746392;81;21111;-63
2022/07/02 01:47:10;;;;;;;7.03;4.58;;;;;;;16.09;100.00;100008.23;1728857;82;21049;-64
2022/07/02 01:49:37;;;;;;;9.38;4.85;;;;;;;16.12;100.00;100009.03;1719162;82;21079;-63
2022/07/02 01:52:05;;;;;;;8.13;4.67;;;;;;;16.19;100.00;100011.62;1731507;82;21070;-64
2022/07/02 01:54:32;;;;;;;6.55;4.28;;;;;;;16.31;100.00;100022.95;1724139;81;21562;-65
2022/07/02 01:57:00;;;;;;;8.08;4.45;;;;;;;16.51;100.00;100018.99;1678421;84;21153;-64
2022/07/02 01:59:26;;;;;;;7.55;4.72;;;;;;;16.66;100.00;100018.73;1709117;82;21740;-64
2022/07/02 02:01:53;;;;;;;6.17;4.15;;;;;;;16.72;100.00;100017.51;1721718;82;21015;-64
2022/07/02 02:04:20;;;;;;;11.25;4.60;;;;;;;16.73;100.00;100026.02;1711920;82;21040;-64
2022/07/02 02:06:47;;;;;;;7.75;4.53;;;;;;;16.74;100.00;100030.96;1734238;81;21478;-64
2022/07/02 02:09:14;;;;;;;5.92;4.37;;;;;;;16.69;100.00;100033.24;1726115;82;21131;-64
2022/07/02 02:11:41;;;;;;;5.92;4.40;;;;;;;16.64;100.00;100025.67;1733061;82;21024;-64
2022/07/02 02:14:07;;;;;;;5.87;3.90;;;;;;;16.60;100.00;100029.59;1721948;82;21080;-65
2022/07/02 02:16:34;;;;;;;5.28;3.92;;;;;;;16.65;100.00;100028.68;1740509;81;21028;-64
2022/07/02 02:19:01;;;;;;;5.72;4.00;;;;;;;16.73;100.00;100025.20;1735853;82;21028;-64
2022/07/02 02:21:28;;;;;;;6.37;4.15;;;;;;;16.82;100.00;100019.27;1729436;82;21468;-64
2022/07/02 02:23:55;;;;;;;6.50;4.20;;;;;;;16.82;100.00;100011.83;1734764;81;21028;-65
2022/07/02 02:26:22;;;;;;;7.47;3.87;;;;;;;16.78;100.00;100015.48;1746707;80;20968;-64
2022/07/02 02:28:49;;;;;;;5.47;4.33;;;;;;;16.76;100.00;100021.84;1745370;80;21043;-64
2022/07/02 02:31:16;;;;;;;5.42;4.17;;;;;;;16.78;100.00;100025.11;1738991;80;21051;-64
2022/07/02 02:33:43;;;;;;;6.72;4.22;;;;;;;16.81;100.00;100032.74;1724489;82;21043;-65
2022/07/02 02:36:09;;;;;;;6.97;4.22;;;;;;;16.80;100.00;100040.17;1726723;82;21031;-64
2022/07/02 02:38:38;;;;;;;6.33;4.28;;;;;;;16.83;100.00;100037.36;1733408;80;21114;-64
2022/07/02 02:41:05;;;;;;;7.62;4.30;;;;;;;16.90;100.00;100048.21;1730757;82;21664;-64
2022/07/02 02:43:33;;;;;;;7.37;3.98;;;;;;;17.01;100.00;100050.75;1737076;80;21044;-64
2022/07/02 02:46:00;;;;;;;5.47;4.08;;;;;;;17.06;100.00;100056.16;1747751;82;20998;-64
2022/07/02 02:48:27;;;;;;;5.97;4.65;;;;;;;17.06;100.00;100049.28;1742256;80;21051;-64
2022/07/02 02:50:55;;;;;;;6.50;4.40;;;;;;;17.10;100.00;100056.63;1739148;82;21019;-64
2022/07/02 02:53:22;;;;;;;5.08;4.10;;;;;;;17.13;100.00;100050.50;1740482;82;21036;-64
2022/07/02 02:55:49;;;;;;;5.65;4.10;;;;;;;17.16;100.00;100052.64;1727911;82;21065;-64
2022/07/02 02:58:15;;;;;;;6.10;4.12;;;;;;;17.19;100.00;100049.82;1722666;82;21039;-64
2022/07/02 03:00:42;;;;;;;7.22;4.70;;;;;;;17.24;100.00;100058.80;1741011;80;21062;-64
2022/07/02 03:03:10;;;;;;;6.47;3.98;;;;;;;17.31;100.00;100059.20;1736681;82;21090;-64
2022/07/02 03:05:36;;;;;;;7.58;4.72;;;;;;;17.35;100.00;100058.02;1722499;82;21059;-64
2022/07/02 03:08:03;;;;;;;6.03;4.67;;;;;;;17.39;100.00;100056.28;1740384;82;21538;-64
2022/07/02 03:10:31;;;;;;;7.10;4.40;;;;;;;17.50;100.00;100056.87;1748679;80;20998;-65
2022/07/02 03:12:58;;;;;;;5.92;4.42;;;;;;;17.63;100.00;100051.91;1761190;80;21534;-65
2022/07/02 03:15:24;;;;;;;7.87;4.40;;;;;;;17.75;100.00;100057.11;1733907;82;20993;-64
2022/07/02 03:17:51;;;;;;;6.72;4.78;;;;;;;17.92;100.00;100066.09;1734845;82;21015;-64
2022/07/02 03:20:17;;;;;;;6.80;4.70;;;;;;;18.13;100.00;100064.47;1734351;82;20983;-64
2022/07/02 03:22:44;;;;;;;7.37;4.35;;;;;;;18.33;100.00;100072.77;1750354;80;21015;-64
2022/07/02 03:25:15;;;;;;;5.20;3.70;;;;;;;18.56;100.00;100069.45;1747615;80;20972;-65
2022/07/02 03:27:39;;;;;;;5.15;4.05;;;;;;;18.83;100.00;100069.25;1722133;82;21066;-65
2022/07/02 03:30:09;;;;;;;7.42;3.83;;;;;;;19.10;100.00;100061.30;1723125;82;21082;-63
2022/07/02 03:32:36;;;;;;;5.20;3.87;;;;;;;19.27;100.00;100047.58;1751896;80;21007;-62
2022/07/02 03:35:06;;;;;;;6.33;4.12;;;;;;;19.55;100.00;100037.09;1678791;84;21038;-64
2022/07/02 03:37:33;;;;;;;6.95;4.22;;;;;;;19.93;100.00;100034.47;1736657;82;21080;-64
2022/07/02 03:40:00;;;;;;;5.28;3.52;;;;;;;20.33;100.00;100027.02;1666185;85;21070;-64
2022/07/02 03:42:27;;;;;;;7.35;3.55;;;;;;;20.67;100.00;100023.34;1747457;80;21102;-64
2022/07/02 03:44:53;;;;;;;6.65;4.15;;;;;;;20.94;100.00;100009.61;1744940;80;21602;-66
2022/07/02 03:47:20;;;;;;;8.00;3.90;;;;;;;21.09;100.00;100006.84;1738772;82;20988;-65
2022/07/02 03:49:47;;;;;;;5.12;3.62;;;;;;;21.21;100.00;100007.80;1704077;82;21704;-64
2022/07/02 03:52:13;;;;;;;6.37;3.45;;;;;;;21.33;100.00;100006.47;1728851;82;21539;-67
2022/07/02 03:54:40;;;;;;;5.90;3.80;;;;;;;21.42;100.00;99993.14;1756253;80;21538;-65
2022/07/02 03:57:06;;;;;;;4.47;3.35;;;;;;;21.51;100.00;99998.84;1729936;82;21014;-65
2022/07/02 03:59:33;;;;;;;5.20;3.83;;;;;;;21.67;100.00;99997.67;1732332;82;21063;-65
2022/07/02 04:02:00;;;;;;;5.78;3.72;;;;;;;21.73;100.00;99997.69;1720174;82;21035;-65
2022/07/02 04:04:27;;;;;;;5.30;3.47;;;;;;;21.80;100.00;99997.38;1749506;80;21102;-66
2022/07/02 04:06:54;;;;;;;9.10;4.00;;;;;;;21.99;100.00;99996.10;1752087;80;21078;-64
2022/07/02 04:09:21;;;;;;;4.90;4.10;;;;;;;21.99;100.00;99996.10;1751164;82;21070;-65
2022/07/02 04:11:47;;;;;;;8.13;3.92;;;;;;;22.08;100.00;100003.17;1736111;82;21525;-65
2022/07/02 04:14:14;;;;;;;7.05;4.10;;;;;;;22.20;100.00;100001.02;1722330;83;21488;-66
2022/07/02 04:16:40;;;;;;;4.97;4.10;;;;;;;22.40;100.00;99998.75;1714607;80;21482;-66
2022/07/02 04:19:07;;;;;;;6.50;4.30;;;;;;;22.59;100.00;100004.56;1759664;80;21022;-65
2022/07/02 04:21:34;;;;;;;5.65;3.90;;;;;;;22.85;100.00;100007.63;1730309;82;21438;-65
2022/07/02 04:24:01;;;;;;;6.78;4.33;;;;;;;22.85;100.00;100007.63;1722815;82;21046;-65
2022/07/02 04:26:27;;;;;;;9.15;4.08;;;;;;;22.95;100.00;100012.13;1705465;80;21420;-65
2022/07/02 04:28:54;;;;;;;6.15;4.00;;;;;;;23.01;100.00;100009.34;1763131;80;21070;-65
2022/07/02 04:31:21;;;;;;;9.03;4.28;;;;;;;23.12;100.00;100023.00;1725457;82;21029;-66
2022/07/02 04:33:47;;;;;;;6.15;4.00;;;;;;;23.24;100.00;100031.88;1722566;83;21068;-66
2022/07/02 04:36:13;;;;;;;6.20;4.05;;;;;;;23.28;100.00;100038.36;1723050;82;21010;-65
2022/07/02 04:38:40;;;;;;;7.72;4.12;;;;;;;23.28;100.00;100038.36;1749197;80;21102;-65
2022/07/02 04:41:07;;;;;;;7.67;3.98;;;;;;;23.33;100.00;100038.70;1745738;82;21555;-65
2022/07/02 04:43:34;;;;;;;5.65;4.03;;;;;;;23.43;100.00;100035.47;1722786;80;21011;-65
2022/07/02 04:46:01;;;;;;;7.65;3.95;;;;;;;23.60;100.00;100035.20;1734196;82;21790;-64
2022/07/02 04:48:27;;;;;;;8.28;3.70;;;;;;;23.77;100.00;100030.17;1773588;80;21078;-66
2022/07/02 04:50:54;;;;;;;5.47;3.77;;;;;;;23.93;100.00;100033.59;1752165;80;21003;-65
2022/07/02 04:53:21;;;;;;;7.72;3.55;;;;;;;;;;1738181;82;21557;-66
2022/07/02 04:55:47;;;;;;;5.62;3.58;;;;;;;24.16;100.00;100036.09;1732862;82;21151;-65
2022/07/02 04:58:14;;;;;;;6.67;3.40;;;;;;;24.34;100.00;100037.97;1736473;80;21083;-65
2022/07/02 05:00:41;;;;;;;6.03;3.83;;;;;;;24.48;100.00;100041.92;1749999;80;21008;-65
2022/07/02 05:03:07;;;;;;;9.33;3.30;;;;;;;24.56;100.00;100044.31;1750473;82;21052;-65
2022/07/02 05:05:34;;;;;;;7.28;3.30;;;;;;;24.66;100.00;100047.95;1729204;82;21545;-66
2022/07/02 05:08:01;;;;;;;9.23;3.72;;;;;;;24.77;100.00;100040.11;1742538;80;21039;-66
2022/07/02 05:10:29;;;;;;;4.85;3.40;;;;;;;24.76;100.00;100041.88;1754844;80;21020;-66
2022/07/02 05:12:56;;;;;;;7.50;3.30;;;;;;;24.84;100.00;100047.86;1736655;80;21597;-65
2022/07/02 05:15:23;;;;;;;5.62;2.98;;;;;;;24.96;100.00;100045.58;1742031;82;21037;-65
2022/07/02 05:17:51;;;;;;;7.30;3.08;;;;;;;25.08;100.00;100038.52;1750922;82;21011;-65
2022/07/02 05:20:18;;;;;;;5.33;3.40;;;;;;;25.27;100.00;100045.53;1727357;80;21023;-64
2022/07/02 05:22:44;;;;;;;3.72;2.87;;;;;;;25.49;100.00;100047.65;1745325;82;20972;-64
2022/07/02 05:25:11;;;;;;;9.33;3.90;;;;;;;25.54;100.00;100045.20;1734017;82;21023;-66
2022/07/02 05:27:37;;;;;;;6.90;3.00;;;;;;;25.66;100.00;100039.48;1733183;82;21003;-63
2022/07/02 05:30:07;;;;;;;8.78;3.40;;;;;;;25.82;100.00;100043.03;1713049;81;21090;-63
2022/07/02 05:32:33;;;;;;;9.95;3.35;;;;;;;25.77;100.00;100036.34;1716659;82;21059;-65
2022/07/02 05:35:00;;;;;;;8.05;3.00;;;;;;;25.52;100.00;100047.53;1727081;82;21074;-65
2022/07/02 05:37:27;;;;;;;8.65;3.52;;;;;;;25.58;100.00;100041.30;1731748;82;21034;-64
2022/07/02 05:39:54;;;;;;;8.25;2.92;;;;;;;25.80;100.00;100051.52;1717608;82;21043;-64
2022/07/02 05:42:21;;;;;;;6.17;3.55;;;;;;;26.06;100.00;100044.13;1733717;81;21008;-65
2022/07/02 05:44:49;;;;;;;7.42;2.62;;;;;;;26.27;100.00;100049.34;1727760;81;21059;-64
2022/07/02 05:47:15;;;;;;;6.03;2.98;;;;;;;26.45;100.00;100045.50;1727236;82;21024;-64
2022/07/02 05:49:42;;;;;;;6.53;3.25;;;;;;;26.61;100.00;100044.79;1731321;82;21534;-64
2022/07/02 05:52:08;;;;;;;7.22;3.08;;;;;;;26.61;100.00;100053.16;1725004;81;21031;-64
2022/07/02 05:54:35;;;;;;;6.40;3.20;;;;;;;26.77;100.00;100053.06;1743708;81;21066;-63
2022/07/02 05:57:03;;;;;;;4.72;2.83;;;;;;;26.88;100.00;100059.09;1742656;81;21086;-64
2022/07/02 05:59:30;;;;;;;3.95;2.90;;;;;;;26.96;100.00;100061.41;1707334;84;21158;-63
2022/07/02 06:01:56;;;;;;;7.30;2.90;;;;;;;27.30;100.00;100063.75;1710697;82;21039;-64
2022/07/02 06:04:23;;;;;;;6.03;2.85;;;;;;;27.61;100.00;100063.44;1718365;81;21121;-64
2022/07/02 06:09:37;;;;;;;6.08;3.08;;;;;;;27.96;100.00;100066.72;1708884;82;21106;-65
2022/07/02 06:12:05;;;;;;;6.80;3.08;;;;;;;28.45;100.00;100072.13;1715623;82;21500;-64
2022/07/02 06:14:31;;;;;;;6.37;2.80;;;;;;;28.42;100.00;100065.89;1728359;81;21000;-65
2022/07/02 06:16:58;;;;;;;7.58;2.42;;;;;;;28.22;100.00;100070.06;1725074;82;20980;-65
2022/07/02 06:19:24;;;;;;;5.05;2.65;;;;;;;28.31;100.00;100071.96;1733189;81;21023;-64
2022/07/02 06:21:53;;;;;;;7.53;2.47;;;;;;;28.70;100.00;100075.83;1720131;81;20956;-65
2022/07/02 06:24:19;;;;;;;7.00;2.55;;;;;;;29.11;90.81;100079.61;1745705;80;21047;-64
2022/07/02 06:26:45;;;;;;;7.47;2.87;;;;;;;29.43;80.50;100074.86;1746010;80;21015;-64
2022/07/02 06:29:12;;;;;;;5.03;2.70;;;;;;;29.50;76.85;100086.12;1736290;82;21604;-64
2022/07/02 06:31:39;;;;;;;5.62;2.70;;;;;;;29.62;74.34;100085.20;1744670;82;21459;-65
2022/07/02 06:34:05;;;;;;;6.12;2.72;;;;;;;29.44;79.93;100080.69;1735105;82;21125;-64
2022/07/02 06:36:33;;;;;;;7.67;2.70;;;;;;;29.45;84.92;100085.08;1738316;80;21601;-64
2022/07/02 06:39:00;;;;;;;5.60;2.72;;;;;;;29.62;78.74;100084.39;1739024;80;21102;-64
2022/07/02 06:44:11;;;;;;;8.28;2.77;;;;;;;29.18;84.11;100084.46;1736738;82;21497;-63
2022/07/02 06:46:39;;;;;;;4.90;2.67;;;;;;;29.33;77.30;100093.83;1752008;80;21049;-64
2022/07/02 06:49:06;;;;;;;4.33;2.52;;;;;;;29.46;78.11;100090.91;1739861;80;21538;-63
2022/07/02 06:51:33;;;;;;;8.03;2.58;;;;;;;29.37;74.52;100091.86;1727193;82;21069;-65
2022/07/02 06:54:02;;;;;;;5.53;2.50;;;;;;;29.06;75.61;100091.16;1737809;82;21071;-64
2022/07/02 06:56:32;;;;;;;7.37;2.72;;;;;;;28.90;79.57;100090.63;1727082;82;20991;-66
2022/07/02 06:58:58;;;;;;;6.83;2.50;;;;;;;29.02;71.04;100093.12;1747634;80;21079;-65
2022/07/02 07:01:24;;;;;;;6.22;2.35;;;;;;;29.22;67.97;100097.91;1748806;82;21043;-65
2022/07/02 07:03:51;;;;;;;5.67;2.40;;;;;;;29.46;63.38;100097.92;1702664;84;21101;-66
2022/07/02 07:06:20;;;;;;;6.00;2.20;;;;;;;29.65;63.24;100093.45;1744419;82;21007;-65
2022/07/02 07:08:52;;;;;;;5.60;2.30;;;;;;;29.92;61.49;100093.42;1731606;80;21624;-63
2022/07/02 07:11:15;;;;;;;8.70;2.60;;;;;;;30.15;55.77;100088.91;1751715;80;21066;-65
2022/07/02 07:13:42;;;;;;;6.30;2.37;;;;;;;30.19;58.42;100085.52;1744609;82;21090;-64
2022/07/02 07:16:09;;;;;;;3.87;2.47;;;;;;;29.97;54.89;100084.61;1727731;82;21018;-65
2022/07/02 07:18:36;;;;;;;4.58;2.25;;;;;;;30.03;56.33;100083.06;1738344;80;21086;-66
2022/07/02 07:21:03;;;;;;;5.45;2.15;;;;;;;30.20;53.66;100075.90;1746602;80;21656;-66
2022/07/02 07:23:31;;;;;;;6.05;2.45;;;;;;;30.35;54.11;100080.97;1728231;82;21047;-65
2022/07/02 07:25:58;;;;;;;8.60;5.87;;;;;;;30.69;52.10;100084.28;1726765;80;21006;-64
2022/07/02 07:28:27;;;;;;;5.67;3.67;;;;;;;30.84;49.44;100088.13;1738226;80;21010;-65
2022/07/02 07:30:55;;;;;;;4.42;2.00;;;;;;;30.91;50.50;100094.36;1751248;80;20954;-63
2022/07/02 07:33:22;;;;;;;4.72;1.80;;;;;;;30.93;47.16;100092.74;1687362;83;21074;-65
2022/07/02 07:35:49;;;;;;;6.85;1.90;;;;;;;30.86;46.42;100089.92;1728406;82;21069;-62
2022/07/02 07:38:15;;;;;;;3.40;1.77;;;;;;;30.86;46.68;100091.33;1732857;82;21542;-62
2022/07/02 07:40:42;;;;;;;4.58;2.08;;;;;;;30.88;47.87;100098.78;1763747;80;21003;-62
2022/07/02 07:43:09;;;;;;;7.28;2.30;;;;;;;30.71;47.16;100082.70;1659320;85;21101;-63
2022/07/02 07:45:36;;;;;;;5.03;1.82;;;;;;;30.74;46.28;100091.73;1739330;80;21066;-63
2022/07/02 07:48:04;;;;;;;9.98;2.27;;;;;;;30.66;44.02;100087.30;1727011;82;21050;-66
2022/07/02 07:50:30;;;;;;;7.20;1.75;;;;;;;30.72;45.40;100091.31;1729232;80;21043;-63
2022/07/02 07:52:57;;;;;;;4.30;1.50;;;;;;;30.96;45.93;100101.00;1740111;80;21122;-63
2022/07/02 07:55:24;;;;;;;4.37;1.50;;;;;;;31.17;43.38;100106.66;1730652;82;21011;-63
2022/07/02 07:57:50;;;;;;;3.02;1.40;;;;;;;31.29;39.80;100102.03;1748582;82;21066;-65
2022/07/02 08:00:18;;;;;;;7.08;1.70;;;;;;;31.24;39.19;100105.86;1752753;82;21019;-65
2022/07/02 08:02:45;;;;;;;5.65;1.60;;;;;;;31.18;39.09;100101.84;1741009;80;21466;-65
2022/07/02 08:05:12;;;;;;;6.65;2.02;;;;;;;31.18;41.14;100104.66;1733358;82;21069;-63
2022/07/02 08:07:39;;;;;;;6.03;1.75;;;;;;;31.38;40.14;100115.09;1722555;82;21559;-63
2022/07/02 08:10:14;;;;;;;4.62;1.90;;;;;;;31.57;39.79;100123.13;1725073;82;21583;-63
2022/07/02 08:12:40;;;;;;;6.87;1.65;;;;;;;31.81;41.09;100114.46;1745839;80;21035;-63
2022/07/02 08:15:09;;;;;;;3.37;1.87;;;;;;;32.08;39.36;100108.36;1726366;82;21530;-63
2022/07/02 08:17:37;;;;;;;6.25;1.70;;;;;;;32.28;38.28;100112.30;1723732;82;21443;-63
2022/07/02 08:20:05;;;;;;;5.97;1.40;;;;;;;32.28;36.49;100120.74;1722681;83;21136;-64
2022/07/02 08:22:33;;;;;;;3.50;1.65;;;;;;;32.12;36.44;100123.23;1740094;82;21021;-64
2022/07/02 08:25:00;;;;;;;4.55;1.60;;;;;;;31.94;39.11;100123.27;1727633;81;21035;-63
2022/07/02 08:27:27;;;;;;;6.67;2.08;;;;;;;31.75;40.78;100126.52;1716106;82;20960;-63
2022/07/02 08:29:54;;;;;;;3.77;1.50;;;;;;;32.10;40.46;100131.30;1729144;82;21053;-63
2022/07/02 08:32:20;;;;;;;3.27;1.70;;;;;;;32.42;38.38;100126.31;1724135;82;20946;-63
2022/07/02 08:34:47;;;;;;;5.17;1.62;;;;;;;32.58;36.05;100136.52;1730441;81;21043;-63
2022/07/02 08:37:15;;;;;;;5.78;1.50;;;;;;;32.52;36.46;100126.89;1725398;82;21024;-64
2022/07/02 08:39:42;;;;;;;3.80;1.70;;;;;;;32.41;35.75;100139.63;1709245;82;21039;-64
2022/07/02 08:42:12;;;;;;;6.47;1.67;;;;;;;32.08;36.61;100126.67;1726386;82;21551;-63
2022/07/02 08:44:38;;;;;;;4.05;1.40;;;;;;;31.95;37.61;100121.46;1731281;82;21063;-64
2022/07/02 08:47:07;;;;;;;3.30;1.50;;;;;;;31.73;38.41;100135.37;1717096;81;20988;-65
2022/07/02 08:49:35;;;;;;;5.03;1.70;;;;;;;31.58;35.45;100128.16;1693974;83;21098;-65
2022/07/02 08:52:06;;;;;;;4.70;1.40;;;;;;;31.26;35.11;100116.89;1695393;82;21402;-64
2022/07/02 08:54:33;;;;;;;2.42;1.60;;;;;;;30.95;37.99;100117.06;1713897;82;21047;-65
2022/07/02 08:57:01;;;;;;;2.52;1.60;;;;;;;30.77;36.77;100125.25;1722289;81;21047;-65
2022/07/02 08:59:31;;;;;;;3.92;1.37;;;;;;;30.19;37.62;100126.82;1742683;81;21121;-65
2022/07/02 09:01:58;;;;;;;3.55;1.70;;;;;;;29.99;38.53;100129.14;1725740;82;21543;-65
2022/07/02 09:04:25;;;;;;;5.50;1.65;;;;;;;29.72;38.11;100142.59;1724751;82;21085;-66
2022/07/02 09:06:57;;;;;;;2.87;1.70;;;;;;;29.35;37.97;100147.50;1727715;82;21051;-64
2022/07/02 09:09:23;;;;;;;2.42;1.40;;;;;;;28.95;39.80;100139.30;1742668;81;21050;-64
2022/07/02 09:11:52;;;;;;;5.35;1.92;;;;;;;28.65;39.81;100136.58;1734353;82;21389;-65
2022/07/02 09:14:18;;;;;;;6.17;2.02;;;;;;;28.44;40.10;100143.92;1715926;82;21546;-65
2022/07/02 09:16:47;;;;;;;2.42;1.70;;;;;;;28.33;40.37;100135.98;1708601;82;21039;-64
2022/07/02 09:19:14;;;;;;;3.55;1.77;;;;;;;28.31;40.33;100139.15;1668587;84;21079;-65
2022/07/02 09:21:50;;;;;;;4.35;1.80;;;;;;;28.24;42.88;100133.46;1724754;82;21003;-64
2022/07/02 09:24:35;;;;;;;;;;;;;;;28.28;40.29;100130.12;1721238;82;21671;-63
2022/07/02 09:27:11;;;;;;;1.75;1.50;;;;;;;28.03;39.17;100126.97;1727849;82;20110;-64
2022/07/02 09:29:48;;;;;;;4.35;1.80;;;;;;;27.79;39.80;100127.43;1764528;80;21067;-63
2022/07/02 09:32:16;;;;;;;5.83;1.72;;;;;;;27.73;39.97;100130.34;1752492;81;21429;-64
2022/07/02 09:34:52;;;;;;;4.75;2.15;;;;;;;27.73;42.80;100131.75;1717108;82;21063;-64
2022/07/02 09:37:23;;;;;;;4.50;1.87;;;;;;;27.70;44.15;100122.72;1722576;82;21023;-64
2022/07/02 09:39:52;;;;;;;4.00;1.87;;;;;;;27.63;44.52;100121.21;1765613;80;21083;-63
2022/07/02 09:42:31;;;;;;;6.03;2.05;;;;;;;27.58;43.41;100121.52;1736172;80;21514;-63
2022/07/02 09:44:59;;;;;;;3.05;1.80;;;;;;;27.51;45.83;100122.22;1716706;83;21142;-63
2022/07/02 09:47:34;;;;;;;4.35;1.67;;;;;;;27.61;44.62;100125.77;1741736;80;21033;-63
2022/07/02 09:50:12;;;;;;;4.05;1.70;;;;;;;27.77;44.73;100129.00;1753005;80;21042;-64
2022/07/02 09:52:56;;;;;;;2.92;1.65;;;;;;;27.88;43.22;100126.55;1734996;81;21031;-64
2022/07/02 09:55:31;;;;;;;3.67;1.65;;;;;;;27.98;43.65;100139.09;1743429;80;21061;-64
2022/07/02 09:58:00;;;;;;;3.70;1.60;;;;;;;28.05;41.74;100137.80;1739645;82;21094;-64
2022/07/02 10:00:31;;;;;;;4.22;1.60;;;;;;;28.07;41.21;100139.05;1749617;80;21043;-64
2022/07/02 10:02:58;;;;;;;2.02;1.30;;;;;;;27.96;41.09;100144.24;1721053;80;21599;-65
2022/07/02 10:05:33;;;;;;;4.83;1.80;;;;;;;27.86;39.80;100135.11;1726384;82;21031;-64
2022/07/02 10:08:02;;;;;;;4.87;1.60;;;;;;;27.75;40.72;100132.16;1719996;82;21110;-65
2022/07/02 10:10:41;;;;;;;3.62;1.60;;;;;;;27.66;40.23;100134.44;1724470;80;21906;-65
2022/07/02 10:13:10;;;;;;;5.15;1.80;;;;;;;27.67;40.60;100133.23;1736683;80;21085;-65
2022/07/02 10:15:40;;;;;;;4.47;1.70;;;;;;;27.76;40.09;100135.19;1725754;82;21037;-66
2022/07/02 10:18:07;;;;;;;2.40;1.42;;;;;;;27.81;38.50;100132.04;1728570;82;21090;-65
2022/07/02 10:20:34;;;;;;;3.15;1.57;;;;;;;27.87;37.12;100132.54;1725216;82;21098;-64
2022/07/02 10:23:04;;;;;;;4.08;1.55;;;;;;;27.93;37.93;100135.22;1752685;80;21488;-65
2022/07/02 10:25:32;;;;;;;5.60;1.57;;;;;;;27.84;36.38;100127.70;1772702;80;21051;-65
2022/07/02 10:27:59;;;;;;;4.40;1.80;;;;;;;27.77;37.84;100134.01;1720611;82;21535;-65
2022/07/02 10:30:37;;;;;;;4.40;1.70;;;;;;;27.78;37.34;100118.81;1717492;82;20991;-65
2022/07/02 10:33:29;;;;;;;1.95;1.40;;;;;;;27.75;37.49;100119.58;1736768;80;21105;-65
2022/07/02 10:35:56;;;;;;;4.03;1.70;;;;;;;27.83;38.86;100117.69;1729951;80;20995;-65
2022/07/02 10:38:37;;;;;;;5.85;1.72;;;;;;;28.01;37.33;100125.73;1689767;82;21527;-64
2022/07/02 10:41:03;;;;;;;5.05;1.80;;;;;;;28.11;38.35;100111.92;1718506;82;21000;-65
2022/07/02 10:43:40;;;;;;;2.67;1.50;;;;;;;28.24;37.96;100120.05;1725398;82;21086;-65
2022/07/02 10:46:13;;;;;;;2.60;1.65;;;;;;;28.17;38.07;100111.79;1746851;80;21046;-65
2022/07/02 10:48:55;;;;;;;3.67;1.70;;;;;;;28.11;37.96;100106.91;1766395;80;21067;-65
2022/07/02 10:56:13;;;;;;;;;;;;;;;28.52;38.31;100093.81;1790154;78;23509;-64
2022/07/02 10:58:39;;;;;;;;;;;;;;;28.49;38.45;100091.17;1747845;80;20099;-64
2022/07/02 11:01:23;;;;;;;3.77;1.60;;;;;;;28.46;38.27;100086.92;1733285;81;20145;-63
2022/07/02 11:04:02;;;;;;;3.40;1.70;;;;;;;28.40;36.95;100079.48;1736925;81;21050;-63
2022/07/02 11:06:31;;;;;;;6.55;1.60;;;;;;;28.37;37.01;100083.64;1726286;81;21508;-64
2022/07/02 11:09:06;;;;;;;6.12;1.85;;;;;;;28.37;37.63;100080.84;1729894;81;21074;-64
2022/07/02 11:11:41;;;;;;;7.40;1.70;;;;;;;28.38;36.70;100076.83;1722932;81;21043;-63
2022/07/02 11:14:11;;;;;;;;;;;;;;;28.27;38.65;100077.33;1735513;81;21266;-63
2022/07/02 11:16:51;;;;;;;5.42;2.05;;;;;;;28.12;37.97;100081.95;1725060;82;20447;-62
2022/07/02 11:19:25;;;;;;;3.37;1.87;;;;;;;27.75;37.64;100077.62;1741444;81;21111;-62
2022/07/02 11:21:58;;;;;;;6.30;2.10;;;;;;;27.55;38.22;100073.34;1726463;81;21079;-63
2022/07/02 11:24:27;;;;;;;4.58;2.10;;;;;;;27.48;37.78;100062.88;1727787;81;21083;-63
2022/07/02 11:26:54;;;;;;;4.45;1.80;;;;;;;27.54;39.74;100069.74;1728739;81;21048;-64
2022/07/02 11:29:21;;;;;;;3.60;1.80;;;;;;;27.66;39.30;100067.31;1714936;82;21594;-63
2022/07/02 11:31:50;;;;;;;7.67;1.85;;;;;;;27.77;38.37;100059.88;1735685;81;21039;-63
2022/07/02 11:34:23;;;;;;;5.83;1.80;;;;;;;27.87;38.63;100059.80;1760550;80;21074;-64
2022/07/02 11:39:36;;;;;;;3.45;2.08;;;;;;;27.84;38.04;100056.38;1776713;79;22506;-64
2022/07/02 11:42:04;;;;;;;3.58;1.82;;;;;;;27.77;39.84;100060.47;1737326;82;21043;-63
2022/07/02 11:44:31;;;;;;;4.37;1.70;;;;;;;27.88;40.13;100065.62;1712960;82;21121;-63
2022/07/02 11:46:59;;;;;;;3.52;1.82;;;;;;;27.98;39.75;100059.35;1733547;82;21184;-65